Gilson, IL (61436)

9:17 AM CDT on August 04, 2015 (GMT -0500)
KILKNOXV2 | | Change Station
CLOSE
Current Station
Personal Weather Station
Location: Knoxville, IL
Elevation: 773 ft
Nearby Weather Stations

Elev 773 ft 40.91 °N, 90.29 °W | Updated 2 minutes ago

Partly Cloudy
Partly Cloudy
73.5 °F
Feels Like 75 °F
N
0.0
Wind Variable Wind from WNW
Gusts 3.0 mph

Today
High -- | Low -- °F
--% Chance of Precip.
Yesterday
High -- | Low -- °F
Precip. -- in
5:59 AM 8:13 PM
Waning Gibbous, 77% visible
Pressure 30.01 in
Visibility 10.0 miles
Clouds Clear
Heat Index 75 °F
Dew Point 64 °F
Humidity 73%
Rainfall 0.00 in
Snow Depth Not available.
UV 3 out of 12
Pollen 6.60 out of 12
Air Quality Not available.
Flu Activity Not available.
METAR KGBG 041355Z AUTO 00000KT 10SM CLR 21/17 A3001 RMK AO2 T02110167

More Conditions Fewer Conditions

Pressure 30.01 in
Visibility 10.0 miles
Clouds Clear
Heat Index 75 °F
Dew Point 64 °F
Humidity 73%
Rainfall 0.00 in
Snow Depth Not available.
UV 3 out of 12
Pollen 6.60 out of 12
Air Quality Not available.
Flu Activity Not available.
METAR KGBG 041355Z AUTO 00000KT 10SM CLR 21/17 A3001 RMK AO2 T02110167

More Conditions Fewer Conditions

10-Day Weather Forecast

×

Almanac

Astronomy

Aug. 04, 2015 Rise Set
Actual Time
Civil Twilight
Nautical Twilight
Astronomical Twilight
Moon
Length of Visible Light
Length of Day
Tomorrow will be .
, % of the Moon is Illuminated

Today's Extremes

State Highs State Lows

Community

WunderPhotos

Upload Photos

1,843,916 photos uploaded!

WunderBlogs® & News

Nearby

Air Quality

  Air Quality AQ Index Pollutant
Not available.

Snow Depth

Station Depth Elevation

Earthquake Activity

City Distance Mag. Time & Date
Minimum magnitude displayed is 2.5.

Coastal Water Temperatures

Place Temperature

Stations

Nearby Weather Stations

Station Location Temp. Windchill Dew Point Humidity Wind Precip. Elev Updated Type